Time;durP1;ratioP1;P1;durP2;ratioP2;P2;SDS_P1;SDS_P2;PMS_P1;PMS_P2;Temp;Humidity;BMP_temperature;BMP_pressure;BME280_temperature;BME280_humidity;BME280_pressure;Samples;Min_cycle;Max_cycle;Signal;HPM_P1;HPM_P2
2022/07/10 00:00:26;;;;;;;;;;;20.90;47.40;;;;;;5047754;28;20273;-69
2022/07/10 00:02:53;;;;;;;;;;;20.90;47.40;;;;;;5066430;28;20354;-69
2022/07/10 00:05:19;;;;;;;;;;;20.90;47.40;;;;;;5049661;28;19928;-69
2022/07/10 00:07:48;;;;;;;;;;;20.90;47.40;;;;;;5044608;28;20429;-69
2022/07/10 00:10:14;;;;;;;;;;;20.90;47.40;;;;;;5061824;28;20000;-69
2022/07/10 00:12:42;;;;;;;;;;;21.00;47.50;;;;;;5065650;28;20457;-69
2022/07/10 00:15:09;;;;;;;;;;;21.00;47.50;;;;;;5047534;28;19925;-69
2022/07/10 00:17:38;;;;;;;;;;;21.00;47.50;;;;;;5048870;28;19983;-70
2022/07/10 00:20:06;;;;;;;;;;;21.00;47.50;;;;;;5045684;28;20262;-68
2022/07/10 00:22:34;;;;;;;;;;;21.00;47.50;;;;;;5065636;28;19963;-68
2022/07/10 00:25:02;;;;;;;;;;;21.00;47.50;;;;;;5045617;28;19927;-68
2022/07/10 00:27:29;;;;;;;;;;;21.00;47.50;;;;;;5063345;28;19955;-68
2022/07/10 00:29:56;;;;;;;;;;;21.00;47.50;;;;;;5065064;28;19924;-68
2022/07/10 00:32:22;;;;;;;;;;;21.00;47.50;;;;;;5062658;28;20018;-68
2022/07/10 00:34:49;;;;;;;;;;;21.00;47.50;;;;;;5046114;28;20361;-68
2022/07/10 00:37:16;;;;;;;;;;;21.10;47.60;;;;;;5050357;28;20431;-68
2022/07/10 00:39:43;;;;;;;;;;;21.10;47.60;;;;;;5043372;28;19936;-68
2022/07/10 00:42:13;;;;;;;;;;;21.10;47.60;;;;;;5063642;28;19985;-69
2022/07/10 00:44:39;;;;;;;;;;;21.10;47.60;;;;;;5045183;28;20374;-68
2022/07/10 00:47:06;;;;;;;;;;;21.10;47.60;;;;;;5060201;28;19974;-68
2022/07/10 00:49:33;;;;;;;;;;;21.10;47.70;;;;;;5063860;28;20391;-68
2022/07/10 00:52:00;;;;;;;;;;;21.10;47.60;;;;;;5064592;28;20281;-69
2022/07/10 00:54:27;;;;;;;;;;;21.10;47.60;;;;;;5045772;28;19955;-68
2022/07/10 00:56:54;;;;;;;;;;;21.10;47.60;;;;;;5063088;28;20360;-68
2022/07/10 00:59:22;;;;;;;;;;;21.10;48.20;;;;;;5046963;28;19920;-68
2022/07/10 01:01:49;;;;;;;;;;;21.20;47.70;;;;;;5060331;28;19932;-69
2022/07/10 01:04:15;;;;;;;;;;;21.20;47.70;;;;;;5046952;28;19921;-68
2022/07/10 01:06:42;;;;;;;;;;;21.20;47.70;;;;;;5041494;28;19920;-68
2022/07/10 01:09:09;;;;;;;;;;;21.20;47.70;;;;;;5060083;28;19921;-69
2022/07/10 01:11:36;;;;;;;;;;;21.20;47.70;;;;;;5044203;28;19927;-68
2022/07/10 01:14:03;;;;;;;;;;;21.20;47.70;;;;;;5061112;28;19924;-68
2022/07/10 01:16:31;;;;;;;;;;;21.20;47.60;;;;;;5044800;28;19925;-68
2022/07/10 01:18:58;;;;;;;;;;;21.20;47.70;;;;;;5059667;28;19971;-68
2022/07/10 01:21:26;;;;;;;;;;;21.20;47.70;;;;;;5057929;28;19963;-68
2022/07/10 01:23:53;;;;;;;;;;;21.20;47.70;;;;;;5043182;28;20230;-68
2022/07/10 01:26:21;;;;;;;;;;;21.20;47.70;;;;;;5059409;28;20339;-68
2022/07/10 01:28:48;;;;;;;;;;;21.20;47.70;;;;;;5060740;28;19928;-68
2022/07/10 01:31:15;;;;;;;;;;;21.20;47.70;;;;;;5060241;28;20373;-68
2022/07/10 01:33:42;;;;;;;;;;;21.20;47.70;;;;;;5044750;28;19964;-68
2022/07/10 01:36:08;;;;;;;;;;;21.20;47.70;;;;;;5061843;28;19928;-68
2022/07/10 01:38:36;;;;;;;;;;;21.20;47.70;;;;;;5042709;28;19931;-68
2022/07/10 01:41:03;;;;;;;;;;;21.30;47.80;;;;;;5041822;28;20309;-68
2022/07/10 01:43:30;;;;;;;;;;;21.30;47.80;;;;;;5046626;28;19924;-68
2022/07/10 01:45:56;;;;;;;;;;;21.30;47.80;;;;;;5061803;28;19947;-69
2022/07/10 01:48:23;;;;;;;;;;;21.30;47.80;;;;;;5043464;28;19927;-68
2022/07/10 01:50:50;;;;;;;;;;;21.30;47.80;;;;;;5059547;28;20310;-69
2022/07/10 01:53:16;;;;;;;;;;;21.30;47.70;;;;;;5043677;28;20331;-68
2022/07/10 01:55:44;;;;;;;;;;;21.30;47.80;;;;;;5045081;28;19983;-68
2022/07/10 01:58:11;;;;;;;;;;;21.30;47.70;;;;;;5059391;28;19927;-68
2022/07/10 02:00:38;;;;;;;;;;;21.30;47.70;;;;;;5058371;28;20361;-68
2022/07/10 02:05:49;;;;;;;;;;;21.30;47.70;;;;;;5054674;28;19916;-68
2022/07/10 02:08:16;;;;;;;;;;;21.30;47.70;;;;;;5044570;28;19927;-68
2022/07/10 02:10:44;;;;;;;;;;;21.30;47.70;;;;;;5063432;28;19932;-68
2022/07/10 02:13:14;;;;;;;;;;;21.30;47.70;;;;;;5044729;28;20319;-68
2022/07/10 02:15:41;;;;;;;;;;;21.30;47.70;;;;;;5043377;28;19947;-68
2022/07/10 02:18:08;;;;;;;;;;;21.30;47.80;;;;;;5049278;28;19921;-68
2022/07/10 02:20:35;;;;;;;;;;;21.30;47.80;;;;;;5039608;28;20259;-68
2022/07/10 02:23:01;;;;;;;;;;;21.30;47.80;;;;;;5045921;28;19989;-68
2022/07/10 02:25:28;;;;;;;;;;;21.30;47.80;;;;;;5040787;28;19967;-68
2022/07/10 02:27:55;;;;;;;;;;;21.30;47.80;;;;;;5058728;28;20384;-68
2022/07/10 02:30:23;;;;;;;;;;;21.30;47.80;;;;;;5038865;28;19924;-69
2022/07/10 02:32:50;;;;;;;;;;;21.30;47.80;;;;;;5042370;28;19921;-68
2022/07/10 02:35:17;;;;;;;;;;;21.30;47.80;;;;;;5045511;28;19920;-68
2022/07/10 02:37:43;;;;;;;;;;;21.30;47.80;;;;;;5062414;28;19924;-69
2022/07/10 02:40:10;;;;;;;;;;;21.30;47.80;;;;;;5044501;28;20265;-68
2022/07/10 02:42:37;;;;;;;;;;;21.30;47.80;;;;;;5043343;28;19978;-69
2022/07/10 02:45:06;;;;;;;;;;;21.30;47.80;;;;;;5060900;28;21410;-68
2022/07/10 02:47:34;;;;;;;;;;;21.30;47.80;;;;;;5056211;28;19935;-69
2022/07/10 02:50:01;;;;;;;;;;;21.30;47.80;;;;;;5042384;28;20369;-69
2022/07/10 02:52:30;;;;;;;;;;;21.30;47.80;;;;;;5043547;28;19990;-69
2022/07/10 02:54:57;;;;;;;;;;;21.30;47.80;;;;;;5059258;28;19921;-69
2022/07/10 02:57:24;;;;;;;;;;;21.30;47.80;;;;;;5040380;28;19983;-69
2022/07/10 02:59:50;;;;;;;;;;;21.30;47.80;;;;;;5056469;28;19971;-69
2022/07/10 03:02:17;;;;;;;;;;;21.30;47.80;;;;;;5039075;28;20401;-68
2022/07/10 03:04:45;;;;;;;;;;;21.30;47.80;;;;;;5042435;28;19929;-69
2022/07/10 03:07:12;;;;;;;;;;;21.30;47.80;;;;;;5055374;28;20011;-69
2022/07/10 03:09:39;;;;;;;;;;;21.30;47.80;;;;;;5063751;28;19921;-68
2022/07/10 03:12:06;;;;;;;;;;;21.30;47.80;;;;;;5046313;28;19924;-68
2022/07/10 03:14:33;;;;;;;;;;;21.30;47.80;;;;;;5064789;28;19955;-68
2022/07/10 03:17:00;;;;;;;;;;;21.30;47.80;;;;;;5048654;28;19921;-68
2022/07/10 03:19:26;;;;;;;;;;;21.30;47.80;;;;;;5059574;28;19920;-69
2022/07/10 03:21:54;;;;;;;;;;;21.30;47.80;;;;;;5043323;28;19925;-69
2022/07/10 03:24:21;;;;;;;;;;;21.30;47.80;;;;;;5045912;28;20365;-70
2022/07/10 03:26:48;;;;;;;;;;;21.30;47.80;;;;;;5045683;28;19971;-69
2022/07/10 03:29:15;;;;;;;;;;;21.30;47.80;;;;;;5044264;28;19974;-69
2022/07/10 03:31:42;;;;;;;;;;;21.30;47.80;;;;;;5043850;28;20031;-69
2022/07/10 03:34:09;;;;;;;;;;;21.20;47.70;;;;;;5046702;28;19925;-69
2022/07/10 03:36:36;;;;;;;;;;;21.20;47.70;;;;;;5062152;28;20031;-70
2022/07/10 03:39:04;;;;;;;;;;;21.20;47.70;;;;;;5049603;28;19928;-69
2022/07/10 03:41:31;;;;;;;;;;;21.20;47.70;;;;;;5064686;28;19997;-69
2022/07/10 03:43:58;;;;;;;;;;;21.20;47.70;;;;;;5048470;28;20452;-69
2022/07/10 03:46:24;;;;;;;;;;;21.20;47.70;;;;;;5057934;28;19921;-69
2022/07/10 03:48:51;;;;;;;;;;;21.20;47.80;;;;;;5044784;28;19924;-69
2022/07/10 03:51:18;;;;;;;;;;;21.20;47.70;;;;;;5043563;28;19974;-70
2022/07/10 03:53:45;;;;;;;;;;;21.20;47.70;;;;;;5062676;28;19990;-69
2022/07/10 03:57:53;;;;;;;;;;;21.20;47.70;;;;;;5061087;28;20382;-69
2022/07/10 03:58:59;;;;;;;;;;;21.20;47.70;;;;;;5064187;28;19928;-69
2022/07/10 04:01:25;;;;;;;;;;;21.20;47.70;;;;;;5060284;28;19924;-69
2022/07/10 04:03:52;;;;;;;;;;;21.20;47.70;;;;;;5044300;28;19924;-70
2022/07/10 04:06:19;;;;;;;;;;;21.20;47.70;;;;;;5063952;28;19920;-69
2022/07/10 04:08:46;;;;;;;;;;;21.20;47.70;;;;;;5045717;28;19920;-70
2022/07/10 04:11:14;;;;;;;;;;;21.20;47.70;;;;;;5060607;28;20011;-69
2022/07/10 04:13:41;;;;;;;;;;;21.20;47.70;;;;;;5061439;28;19925;-69
2022/07/10 04:16:10;;;;;;;;;;;21.20;47.70;;;;;;5062543;28;20007;-69
2022/07/10 04:18:36;;;;;;;;;;;21.20;47.70;;;;;;5046027;28;19928;-69
2022/07/10 04:21:03;;;;;;;;;;;21.20;47.70;;;;;;5060009;28;19932;-69
2022/07/10 04:23:30;;;;;;;;;;;21.20;47.70;;;;;;5064075;28;20333;-69
2022/07/10 04:25:57;;;;;;;;;;;21.20;47.70;;;;;;5064071;28;20007;-69
2022/07/10 04:28:25;;;;;;;;;;;21.20;47.70;;;;;;5045035;28;19971;-69
2022/07/10 04:30:52;;;;;;;;;;;21.20;47.70;;;;;;5062654;28;19925;-70
2022/07/10 04:33:19;;;;;;;;;;;21.20;47.70;;;;;;5061955;28;19920;-69
2022/07/10 04:35:46;;;;;;;;;;;21.20;47.70;;;;;;5061955;28;19920;-69
2022/07/10 04:38:12;;;;;;;;;;;21.20;47.60;;;;;;5053869;28;19944;-69
2022/07/10 04:40:39;;;;;;;;;;;21.20;47.70;;;;;;5046109;28;19924;-69
2022/07/10 04:43:06;;;;;;;;;;;21.20;47.60;;;;;;5062838;28;19924;-69
2022/07/10 04:45:34;;;;;;;;;;;21.20;47.70;;;;;;5045660;28;19959;-69
2022/07/10 04:48:01;;;;;;;;;;;21.20;47.60;;;;;;5043323;28;19920;-70
2022/07/10 04:50:27;;;;;;;;;;;21.30;47.70;;;;;;5062827;28;19931;-70
2022/07/10 04:52:54;;;;;;;;;;;21.30;47.60;;;;;;5048336;28;20010;-69
2022/07/10 04:55:22;;;;;;;;;;;21.20;47.60;;;;;;5065902;28;20243;-69
2022/07/10 04:57:48;;;;;;;;;;;21.20;47.60;;;;;;5060701;28;19928;-69
2022/07/10 05:00:15;;;;;;;;;;;21.20;47.60;;;;;;5046311;28;19924;-69
2022/07/10 05:02:44;;;;;;;;;;;21.20;47.60;;;;;;5061300;28;19925;-69
2022/07/10 05:05:10;;;;;;;;;;;21.20;47.70;;;;;;5064026;28;20014;-69
2022/07/10 05:07:37;;;;;;;;;;;21.20;47.70;;;;;;5042308;28;19925;-72
2022/07/10 05:10:04;;;;;;;;;;;21.20;47.70;;;;;;5060575;28;19925;-69
2022/07/10 05:12:31;;;;;;;;;;;21.20;47.70;;;;;;5061629;28;20405;-70
2022/07/10 05:14:59;;;;;;;;;;;21.20;47.70;;;;;;5059592;28;20019;-69
2022/07/10 05:17:26;;;;;;;;;;;21.20;47.70;;;;;;5060923;28;19920;-70
2022/07/10 05:19:55;;;;;;;;;;;21.20;47.70;;;;;;5064785;28;19924;-69
2022/07/10 05:22:22;;;;;;;;;;;21.20;47.70;;;;;;5044187;28;19921;-69
2022/07/10 05:24:49;;;;;;;;;;;21.20;47.70;;;;;;5062203;28;19925;-69
2022/07/10 05:27:16;;;;;;;;;;;21.20;47.70;;;;;;5061288;28;19924;-69
2022/07/10 05:29:42;;;;;;;;;;;21.20;47.70;;;;;;5058571;28;19920;-69
2022/07/10 05:32:09;;;;;;;;;;;21.20;47.70;;;;;;5063286;28;20409;-69
2022/07/10 05:34:36;;;;;;;;;;;21.20;47.70;;;;;;5061839;28;19921;-70
2022/07/10 05:37:05;;;;;;;;;;;21.20;47.80;;;;;;5057506;28;20293;-69
2022/07/10 05:39:31;;;;;;;;;;;21.20;47.80;;;;;;5045993;28;19960;-69
2022/07/10 05:41:58;;;;;;;;;;;21.10;47.70;;;;;;5044513;28;19928;-69
2022/07/10 05:44:25;;;;;;;;;;;21.10;47.70;;;;;;5060769;28;19927;-69
2022/07/10 05:46:51;;;;;;;;;;;21.10;47.70;;;;;;5059108;28;20366;-69
2022/07/10 05:49:18;;;;;;;;;;;21.10;47.70;;;;;;5062843;28;19978;-69
2022/07/10 05:51:45;;;;;;;;;;;21.20;47.80;;;;;;5060741;28;19962;-69
2022/07/10 05:54:13;;;;;;;;;;;21.10;47.70;;;;;;5040606;28;19921;-70
2022/07/10 05:56:40;;;;;;;;;;;21.10;47.70;;;;;;5059392;28;19966;-69
2022/07/10 05:59:07;;;;;;;;;;;21.10;47.70;;;;;;5057014;28;20324;-69
2022/07/10 06:01:34;;;;;;;;;;;21.10;47.70;;;;;;5042618;28;20035;-69
2022/07/10 06:04:01;;;;;;;;;;;21.10;47.70;;;;;;5059306;28;20008;-70
2022/07/10 06:06:28;;;;;;;;;;;21.10;47.70;;;;;;5041562;28;19925;-69
2022/07/10 06:08:55;;;;;;;;;;;21.10;47.60;;;;;;5040421;28;19921;-69
2022/07/10 06:11:23;;;;;;;;;;;21.10;47.60;;;;;;5061686;28;20373;-69
2022/07/10 06:13:51;;;;;;;;;;;21.10;47.30;;;;;;5054704;28;19920;-69
2022/07/10 06:16:18;;;;;;;;;;;21.10;47.00;;;;;;5053981;28;19940;-69
2022/07/10 06:18:44;;;;;;;;;;;21.00;46.70;;;;;;5057765;28;20024;-69
2022/07/10 06:21:11;;;;;;;;;;;21.00;46.20;;;;;;5059248;28;20414;-69
2022/07/10 06:23:38;;;;;;;;;;;20.90;45.90;;;;;;5055520;28;19966;-69
2022/07/10 06:26:05;;;;;;;;;;;20.90;45.90;;;;;;5047896;28;20320;-69
2022/07/10 06:28:34;;;;;;;;;;;20.80;45.80;;;;;;5046599;28;19934;-69
2022/07/10 06:31:01;;;;;;;;;;;20.80;45.70;;;;;;5060723;28;19927;-69
2022/07/10 06:33:28;;;;;;;;;;;20.80;45.40;;;;;;5061585;28;20424;-69
2022/07/10 06:35:55;;;;;;;;;;;20.80;45.30;;;;;;5059747;28;19967;-69
2022/07/10 06:38:22;;;;;;;;;;;20.70;45.10;;;;;;5045395;28;19921;-69
2022/07/10 06:40:48;;;;;;;;;;;20.70;44.90;;;;;;5059101;28;19993;-69
2022/07/10 06:43:15;;;;;;;;;;;20.70;44.90;;;;;;5055059;28;19929;-69
2022/07/10 06:45:43;;;;;;;;;;;20.70;44.80;;;;;;5056501;28;21036;-69
2022/07/10 06:48:10;;;;;;;;;;;20.60;44.80;;;;;;5062104;28;19974;-69
2022/07/10 06:50:37;;;;;;;;;;;20.60;44.90;;;;;;5044299;28;20265;-69
2022/07/10 06:53:04;;;;;;;;;;;20.60;45.10;;;;;;5038338;28;20217;-69
2022/07/10 06:55:31;;;;;;;;;;;20.60;45.30;;;;;;5057016;28;20213;-69
2022/07/10 06:57:58;;;;;;;;;;;20.60;45.30;;;;;;5041753;28;20353;-69
2022/07/10 07:00:25;;;;;;;;;;;20.60;45.10;;;;;;5057550;28;20303;-69
2022/07/10 07:02:53;;;;;;;;;;;20.60;44.90;;;;;;5043608;28;20361;-69
2022/07/10 07:05:20;;;;;;;;;;;20.60;44.90;;;;;;5039757;28;19921;-69
2022/07/10 07:07:47;;;;;;;;;;;20.60;44.80;;;;;;5060655;28;19924;-69
2022/07/10 07:10:13;;;;;;;;;;;20.60;44.80;;;;;;5047858;28;19920;-69
2022/07/10 07:12:40;;;;;;;;;;;20.60;44.80;;;;;;5044886;28;20035;-69
2022/07/10 07:15:08;;;;;;;;;;;20.50;44.80;;;;;;5042994;28;19968;-69
2022/07/10 07:17:56;;;;;;;;;;;20.50;44.70;;;;;;5059471;28;19932;-69
2022/07/10 07:23:12;;;;;;;;;;;20.50;44.80;;;;;;5054886;28;19921;-68
2022/07/10 07:25:41;;;;;;;;;;;20.50;44.70;;;;;;5041252;28;19975;-68
2022/07/10 07:28:08;;;;;;;;;;;20.50;44.80;;;;;;5044154;28;20259;-68
2022/07/10 07:30:35;;;;;;;;;;;20.50;45.00;;;;;;5060514;28;20277;-69
2022/07/10 07:33:02;;;;;;;;;;;20.50;45.10;;;;;;5037483;28;20002;-71
2022/07/10 07:35:35;;;;;;;;;;;20.50;45.20;;;;;;5056650;28;19955;-68
2022/07/10 07:38:02;;;;;;;;;;;20.60;45.40;;;;;;5046849;28;19939;-68
2022/07/10 07:40:29;;;;;;;;;;;20.60;45.40;;;;;;5046631;28;20358;-69
2022/07/10 07:42:55;;;;;;;;;;;20.60;45.50;;;;;;5058244;28;20297;-69
2022/07/10 07:45:23;;;;;;;;;;;20.60;45.50;;;;;;5042361;28;19921;-69
2022/07/10 07:47:51;;;;;;;;;;;20.70;45.60;;;;;;5044621;28;20428;-68
2022/07/10 07:50:18;;;;;;;;;;;20.70;45.60;;;;;;5047566;28;19970;-70
2022/07/10 07:52:46;;;;;;;;;;;20.70;45.70;;;;;;5063550;28;19930;-68
2022/07/10 07:55:14;;;;;;;;;;;20.70;45.70;;;;;;5058818;28;19928;-68
2022/07/10 07:57:41;;;;;;;;;;;20.80;45.80;;;;;;5046151;28;19920;-68
2022/07/10 08:00:08;;;;;;;;;;;20.80;45.80;;;;;;5046425;28;19967;-68
2022/07/10 08:02:37;;;;;;;;;;;20.80;45.80;;;;;;5044327;28;19956;-69
2022/07/10 08:05:04;;;;;;;;;;;20.80;45.80;;;;;;5047823;28;19932;-69
2022/07/10 08:07:34;;;;;;;;;;;20.80;45.80;;;;;;5067465;28;19943;-69
2022/07/10 08:10:06;;;;;;;;;;;20.90;45.80;;;;;;5042791;28;19927;-68
2022/07/10 08:12:33;;;;;;;;;;;20.90;45.90;;;;;;5063045;28;19970;-69
2022/07/10 08:15:00;;;;;;;;;;;20.90;45.90;;;;;;5061250;28;19920;-69
2022/07/10 08:17:27;;;;;;;;;;;20.90;45.80;;;;;;5040372;28;20193;-69
2022/07/10 08:19:54;;;;;;;;;;;20.90;45.80;;;;;;5041307;28;20273;-68
2022/07/10 08:22:21;;;;;;;;;;;20.90;45.80;;;;;;5063762;28;19920;-68
2022/07/10 08:24:47;;;;;;;;;;;21.00;45.90;;;;;;5060332;28;19924;-68
2022/07/10 08:27:16;;;;;;;;;;;21.00;45.90;;;;;;5050215;28;19921;-68
2022/07/10 08:29:43;;;;;;;;;;;21.00;45.90;;;;;;5044143;28;19928;-69
2022/07/10 08:32:10;;;;;;;;;;;21.00;45.90;;;;;;5039499;28;19928;-69
2022/07/10 08:34:37;;;;;;;;;;;21.00;45.90;;;;;;5067934;28;19920;-69
2022/07/10 08:37:04;;;;;;;;;;;21.00;46.00;;;;;;5067004;28;19925;-68
2022/07/10 08:39:31;;;;;;;;;;;21.00;46.00;;;;;;5057088;28;19934;-69
2022/07/10 08:41:58;;;;;;;;;;;21.00;45.90;;;;;;5069645;28;19952;-68
2022/07/10 08:44:26;;;;;;;;;;;21.00;45.90;;;;;;5043837;28;19956;-68
2022/07/10 08:46:53;;;;;;;;;;;21.10;46.00;;;;;;5063967;28;20297;-68
2022/07/10 08:49:20;;;;;;;;;;;21.10;46.60;;;;;;5044669;28;20002;-68
2022/07/10 08:51:48;;;;;;;;;;;21.10;46.00;;;;;;5067701;28;19920;-69
2022/07/10 08:54:15;;;;;;;;;;;21.10;46.00;;;;;;5052262;28;19924;-69
2022/07/10 08:56:42;;;;;;;;;;;21.10;46.00;;;;;;5069037;28;19926;-68
2022/07/10 08:59:09;;;;;;;;;;;21.10;46.00;;;;;;5041874;28;19924;-69
2022/07/10 09:01:37;;;;;;;;;;;21.10;45.90;;;;;;5047742;28;19982;-68
2022/07/10 09:04:04;;;;;;;;;;;21.10;46.00;;;;;;5050289;28;19924;-68
2022/07/10 09:06:31;;;;;;;;;;;21.10;46.00;;;;;;5069968;28;19939;-68
2022/07/10 09:09:01;;;;;;;;;;;21.10;46.00;;;;;;5065580;28;19921;-68
2022/07/10 09:11:30;;;;;;;;;;;21.20;46.00;;;;;;5063419;28;19921;-68
2022/07/10 09:13:57;;;;;;;;;;;21.20;46.00;;;;;;5036553;28;20278;-68
2022/07/10 09:16:24;;;;;;;;;;;21.20;45.70;;;;;;5037992;28;19975;-68
2022/07/10 09:18:52;;;;;;;;;;;21.20;45.30;;;;;;5038116;28;19978;-68
2022/07/10 09:21:19;;;;;;;;;;;21.20;44.70;;;;;;5038118;28;20272;-67
2022/07/10 09:23:46;;;;;;;;;;;21.10;44.10;;;;;;5037968;28;20312;-68
2022/07/10 09:26:13;;;;;;;;;;;21.10;43.70;;;;;;5054987;28;19920;-68
2022/07/10 09:28:39;;;;;;;;;;;21.10;43.30;;;;;;5038533;28;19924;-68
2022/07/10 09:31:06;;;;;;;;;;;21.00;43.10;;;;;;5054454;28;20437;-68
2022/07/10 09:33:34;;;;;;;;;;;21.00;42.70;;;;;;5053520;28;20346;-68
2022/07/10 09:36:06;;;;;;;;;;;21.00;42.30;;;;;;5036152;28;20354;-68
2022/07/10 09:38:52;;;;;;;;;;;20.90;42.20;;;;;;5035829;28;20369;-68
2022/07/10 09:41:20;;;;;;;;;;;20.90;42.20;;;;;;5053175;28;19931;-68
2022/07/10 09:43:46;;;;;;;;;;;20.90;42.40;;;;;;5036521;28;19932;-68
2022/07/10 09:46:13;;;;;;;;;;;20.90;42.60;;;;;;5035952;28;20019;-68
2022/07/10 09:48:40;;;;;;;;;;;20.90;42.70;;;;;;5035898;28;19970;-68
2022/07/10 09:51:10;;;;;;;;;;;20.90;42.90;;;;;;5040166;28;20014;-68
2022/07/10 09:53:37;;;;;;;;;;;20.90;42.90;;;;;;5055722;28;19974;-68
2022/07/10 09:56:04;;;;;;;;;;;20.90;42.70;;;;;;5055675;28;19920;-68
2022/07/10 09:58:31;;;;;;;;;;;20.80;42.40;;;;;;5072284;28;19927;-68
2022/07/10 10:00:58;;;;;;;;;;;20.80;41.90;;;;;;5073814;28;19925;-68
2022/07/10 10:03:25;;;;;;;;;;;20.80;41.70;;;;;;5055538;28;19924;-68
2022/07/10 10:05:53;;;;;;;;;;;20.80;41.50;;;;;;5056273;28;19920;-68
2022/07/10 10:08:22;;;;;;;;;;;20.80;41.50;;;;;;5072804;28;19920;-65
2022/07/10 10:10:50;;;;;;;;;;;20.80;41.20;;;;;;5056039;28;20288;-68
2022/07/10 10:13:17;;;;;;;;;;;20.80;41.00;;;;;;5055772;28;20277;-66
2022/07/10 10:15:44;;;;;;;;;;;20.80;40.70;;;;;;5073148;28;19920;-66
2022/07/10 10:18:11;;;;;;;;;;;20.80;40.60;;;;;;5073401;28;19932;-67
2022/07/10 10:20:37;;;;;;;;;;;20.70;40.60;;;;;;5073125;28;19963;-66
2022/07/10 10:23:05;;;;;;;;;;;20.70;40.90;;;;;;5048510;28;19916;-67
2022/07/10 10:25:33;;;;;;;;;;;20.70;40.90;;;;;;5063010;28;20062;-66
2022/07/10 10:28:00;;;;;;;;;;;20.70;41.10;;;;;;5056018;28;19920;-66
2022/07/10 10:30:27;;;;;;;;;;;20.70;41.20;;;;;;5055524;28;19925;-67
2022/07/10 10:32:54;;;;;;;;;;;20.70;41.30;;;;;;5053662;28;19920;-67
2022/07/10 10:35:36;;;;;;;;;;;20.70;41.40;;;;;;5054386;28;20007;-67
2022/07/10 10:38:03;;;;;;;;;;;20.70;41.60;;;;;;5053291;28;20029;-67
2022/07/10 10:40:34;;;;;;;;;;;20.70;41.70;;;;;;5071320;28;20000;-67
2022/07/10 10:43:17;;;;;;;;;;;20.70;41.90;;;;;;5072546;28;19924;-66
2022/07/10 10:45:44;;;;;;;;;;;20.70;42.00;;;;;;5072863;28;19921;-66
2022/07/10 10:48:12;;;;;;;;;;;20.70;42.00;;;;;;5054679;28;19970;-67
2022/07/10 10:50:39;;;;;;;;;;;20.70;42.10;;;;;;5054521;28;19970;-67
2022/07/10 10:53:12;;;;;;;;;;;20.70;42.20;;;;;;5054444;28;19920;-67
2022/07/10 10:55:41;;;;;;;;;;;20.70;42.20;;;;;;5054155;28;19978;-67
2022/07/10 10:58:19;;;;;;;;;;;20.70;42.20;;;;;;5054462;28;20377;-67
2022/07/10 11:00:48;;;;;;;;;;;20.80;42.30;;;;;;5054650;28;20027;-67
2022/07/10 11:03:15;;;;;;;;;;;20.70;42.30;;;;;;5072439;28;20312;-67
2022/07/10 11:05:43;;;;;;;;;;;20.70;42.40;;;;;;5071472;28;19921;-67
2022/07/10 11:08:10;;;;;;;;;;;20.80;42.60;;;;;;5053947;28;19944;-67
2022/07/10 11:10:37;;;;;;;;;;;20.80;42.60;;;;;;5054473;28;19947;-67
2022/07/10 11:13:07;;;;;;;;;;;20.80;42.70;;;;;;5055057;28;19956;-67
2022/07/10 11:15:34;;;;;;;;;;;20.80;42.70;;;;;;5071994;28;19920;-67
2022/07/10 11:18:03;;;;;;;;;;;20.80;42.80;;;;;;5072361;28;20222;-67
2022/07/10 11:20:31;;;;;;;;;;;20.80;42.90;;;;;;5054219;28;19956;-66
2022/07/10 11:23:01;;;;;;;;;;;20.80;43.00;;;;;;5053844;28;19928;-67
2022/07/10 11:25:35;;;;;;;;;;;20.80;43.00;;;;;;5072017;28;19927;-66
2022/07/10 11:28:09;;;;;;;;;;;20.80;43.00;;;;;;5071791;28;19920;-66
2022/07/10 11:30:50;;;;;;;;;;;20.80;43.00;;;;;;5055809;28;19962;-66
2022/07/10 11:33:18;;;;;;;;;;;20.90;43.00;;;;;;5058303;28;20314;-66
2022/07/10 11:35:45;;;;;;;;;;;20.80;42.90;;;;;;5075784;28;19920;-66
2022/07/10 11:38:12;;;;;;;;;;;20.80;42.80;;;;;;5075821;28;19921;-66
2022/07/10 11:40:39;;;;;;;;;;;20.80;42.60;;;;;;5058240;28;19955;-66
2022/07/10 11:43:09;;;;;;;;;;;20.80;42.30;;;;;;5057752;28;20045;-66
2022/07/10 11:45:38;;;;;;;;;;;20.80;41.90;;;;;;5058043;28;20357;-66
2022/07/10 11:48:07;;;;;;;;;;;20.80;41.80;;;;;;5058057;28;20028;-66
2022/07/10 11:50:37;;;;;;;;;;;20.80;41.80;;;;;;5057917;28;19993;-67
2022/07/10 11:53:04;;;;;;;;;;;20.80;41.70;;;;;;5057413;28;19931;-66
2022/07/10 11:55:36;;;;;;;;;;;20.80;41.80;;;;;;5074797;28;19926;-66
2022/07/10 11:58:13;;;;;;;;;;;20.80;41.60;;;;;;5057426;28;19920;-66
2022/07/10 12:00:41;;;;;;;;;;;20.80;41.70;;;;;;5057627;28;19925;-66
2022/07/10 12:03:18;;;;;;;;;;;20.80;41.40;;;;;;5075361;28;19920;-66
2022/07/10 12:05:45;;;;;;;;;;;20.80;41.30;;;;;;5057131;28;19921;-66
2022/07/10 12:08:13;;;;;;;;;;;20.80;41.30;;;;;;5057215;28;20360;-66
2022/07/10 12:10:41;;;;;;;;;;;20.80;41.20;;;;;;5074168;28;20365;-66
2022/07/10 12:13:08;;;;;;;;;;;20.80;41.40;;;;;;5074980;28;19928;-66
2022/07/10 12:15:37;;;;;;;;;;;20.80;41.50;;;;;;5057360;28;20341;-66
2022/07/10 12:18:06;;;;;;;;;;;20.80;41.60;;;;;;5040838;28;19985;-66
2022/07/10 12:20:32;;;;;;;;;;;20.70;41.50;;;;;;5057701;28;20062;-66
2022/07/10 12:23:02;;;;;;;;;;;20.70;41.50;;;;;;5075438;28;19928;-67
2022/07/10 12:25:29;;;;;;;;;;;20.70;41.50;;;;;;5074749;28;19920;-66
2022/07/10 12:27:56;;;;;;;;;;;20.70;41.60;;;;;;5056847;28;19921;-66
2022/07/10 12:30:23;;;;;;;;;;;20.70;41.80;;;;;;5057068;28;19928;-67
2022/07/10 12:32:49;;;;;;;;;;;20.70;41.80;;;;;;5057658;28;19942;-66
2022/07/10 12:35:20;;;;;;;;;;;20.70;41.40;;;;;;5057151;28;19977;-67
2022/07/10 12:37:49;;;;;;;;;;;20.70;41.40;;;;;;5072924;28;19963;-66
2022/07/10 12:40:32;;;;;;;;;;;20.70;41.60;;;;;;5074178;28;19927;-66
2022/07/10 12:43:02;;;;;;;;;;;20.70;41.70;;;;;;5054794;28;20335;-66
2022/07/10 12:45:29;;;;;;;;;;;20.80;41.80;;;;;;5056914;28;20024;-67
2022/07/10 12:47:56;;;;;;;;;;;20.70;41.50;;;;;;5072606;28;19927;-66
2022/07/10 12:50:25;;;;;;;;;;;20.80;41.30;;;;;;5056462;28;19920;-66
2022/07/10 12:53:06;;;;;;;;;;;20.70;41.30;;;;;;5055925;28;19920;-66
2022/07/10 12:55:35;;;;;;;;;;;20.70;41.30;;;;;;5074555;28;19928;-66
2022/07/10 12:58:05;;;;;;;;;;;20.70;41.00;;;;;;5056387;28;19936;-67
2022/07/10 13:00:33;;;;;;;;;;;20.70;41.10;;;;;;5056704;28;19920;-66
2022/07/10 13:03:00;;;;;;;;;;;20.70;41.20;;;;;;5073339;28;19928;-67
2022/07/10 13:05:28;;;;;;;;;;;20.70;41.20;;;;;;5056638;28;20291;-66
2022/07/10 13:08:06;;;;;;;;;;;20.80;41.30;;;;;;5056491;28;19928;-66
2022/07/10 13:10:33;;;;;;;;;;;20.80;41.30;;;;;;5056321;28;19970;-66
2022/07/10 13:13:00;;;;;;;;;;;20.80;41.30;;;;;;5074589;28;19939;-66
2022/07/10 13:15:27;;;;;;;;;;;20.80;41.40;;;;;;5055993;28;19920;-66
2022/07/10 13:17:54;;;;;;;;;;;20.80;41.20;;;;;;5055980;28;20308;-67
2022/07/10 13:20:20;;;;;;;;;;;20.80;41.20;;;;;;5055724;28;19931;-66
2022/07/10 13:22:49;;;;;;;;;;;20.80;41.20;;;;;;5074307;28;19924;-66
2022/07/10 13:25:16;;;;;;;;;;;20.80;41.30;;;;;;5073610;28;19950;-66
2022/07/10 13:27:44;;;;;;;;;;;20.80;41.30;;;;;;5073905;28;19999;-66
2022/07/10 13:30:10;;;;;;;;;;;20.80;41.30;;;;;;5056099;28;19921;-67
2022/07/10 13:32:37;;;;;;;;;;;20.80;41.10;;;;;;5055689;28;20257;-66
2022/07/10 13:35:04;;;;;;;;;;;20.80;41.20;;;;;;5056253;28;20030;-67
2022/07/10 13:37:31;;;;;;;;;;;20.70;41.20;;;;;;5055947;28;19920;-67
2022/07/10 13:39:59;;;;;;;;;;;20.70;41.20;;;;;;5073962;28;19958;-66
2022/07/10 13:42:26;;;;;;;;;;;20.70;41.30;;;;;;5055898;28;19927;-66
2022/07/10 13:44:55;;;;;;;;;;;20.70;41.40;;;;;;5055458;28;19928;-67
2022/07/10 13:47:21;;;;;;;;;;;20.70;41.60;;;;;;5055526;28;19936;-66
2022/07/10 13:49:48;;;;;;;;;;;20.70;41.70;;;;;;5055444;28;19940;-66
2022/07/10 13:52:15;;;;;;;;;;;20.70;41.70;;;;;;5055723;28;19927;-66
2022/07/10 13:54:42;;;;;;;;;;;20.70;41.70;;;;;;5055064;28;19921;-66
2022/07/10 13:57:10;;;;;;;;;;;20.70;41.50;;;;;;5073119;28;20358;-66
2022/07/10 13:59:37;;;;;;;;;;;20.70;41.30;;;;;;5054958;28;20384;-67
2022/07/10 14:02:04;;;;;;;;;;;20.80;41.20;;;;;;5054975;28;19927;-66
2022/07/10 14:04:31;;;;;;;;;;;20.80;41.20;;;;;;5055286;28;19921;-66
2022/07/10 14:06:57;;;;;;;;;;;20.70;41.20;;;;;;5072818;28;19966;-66
2022/07/10 14:09:24;;;;;;;;;;;20.70;41.10;;;;;;5055084;28;19924;-66
2022/07/10 14:11:51;;;;;;;;;;;20.70;41.10;;;;;;5073065;28;19921;-66
2022/07/10 14:14:20;;;;;;;;;;;20.70;41.20;;;;;;5054881;28;20018;-66
2022/07/10 14:16:49;;;;;;;;;;;20.70;41.30;;;;;;5055200;28;20015;-66
2022/07/10 14:19:16;;;;;;;;;;;20.70;41.50;;;;;;5054468;28;19921;-66
2022/07/10 14:21:43;;;;;;;;;;;20.70;41.50;;;;;;5055295;28;20034;-66
2022/07/10 14:24:10;;;;;;;;;;;20.70;41.60;;;;;;5055290;28;20050;-66